»·PEaware :: AAL420 KLAX-KPHX

AAL420 :: KLAX-KPHX

FLIGHT INFORMATION

Flight Status: Arrived
Operator:
American Airlines
More flights by this operator :: More flights under this callsign
Pilot: Jordan S. (14404)
Aircraft: BOEING 737-800
(B738)
More flights by this aircraft type
Origin: KLAX Los Angeles Intl
United States
Destination: KPHX Phoenix Sky Harbor Intl
United States
More flights between these airports :: More routes between these airports
Route: +DOTSS1 CNERY BLH HYDRR1
File this flight plan on PilotEdge
Remarks:
Altitude:
(Current/Filed)
33,000ft
Speed:
(Current/Filed)
470kts
Departed: 06-Jun-17 08:24 PM
Arrived: 06-Jun-17 09:26 PM
Distance/Time
Traveled:
321nm/1:02
Distance/Time
To Go:
Arrived

Flight Plot

Page will automatically refresh every two minutes.

Flight plan parsing failed; only flown route is shown


Map Options




Map Legend


Flown Route
Filed Route
Departure Airport
Arrival Airport
Navaid (VOR, NDB)
Fix

Horizontal Profiles

Position Reports

Time Latitude Longitude Heading Altitude Ground
Speed
06-Jun-17 20:15 33.941136 -118.400210 95 132ft 0kts
06-Jun-17 20:16 33.941162 -118.400547 96 133ft 3kts
06-Jun-17 20:17 33.941535 -118.400971 185 132ft 0kts
06-Jun-17 20:18 33.941535 -118.400971 185 132ft 0kts
06-Jun-17 20:19 33.940632 -118.400721 170 133ft 0kts
06-Jun-17 20:20 33.940568 -118.400709 171 132ft 1kts
06-Jun-17 20:21 33.939040 -118.400413 148 133ft 9kts
06-Jun-17 20:22 33.938988 -118.398075 83 133ft 13kts
06-Jun-17 20:23 33.939667 -118.391413 83 133ft 19kts
06-Jun-17 20:24 33.940241 -118.385745 83 133ft 20kts
06-Jun-17 20:25 33.940232 -118.380114 169 133ft 10kts
06-Jun-17 20:26 33.937419 -118.403171 263 244ft 189kts
06-Jun-17 20:27 33.920054 -118.471686 234 2026ft 237kts
06-Jun-17 20:28 33.876999 -118.537186 232 4413ft 258kts
06-Jun-17 20:29 33.807877 -118.546429 173 6638ft 272kts
06-Jun-17 20:30 33.733616 -118.529777 170 8841ft 277kts
06-Jun-17 20:31 33.684046 -118.463321 116 11068ft 295kts
06-Jun-17 20:32 33.653291 -118.369932 113 13327ft 315kts
06-Jun-17 20:33 33.645478 -118.262712 92 15570ft 339kts
06-Jun-17 20:34 33.645346 -118.145638 92 17865ft 368kts
06-Jun-17 20:35 33.645173 -118.019256 92 20148ft 392kts
06-Jun-17 20:36 33.644980 -117.886624 92 22381ft 409kts
06-Jun-17 20:37 33.644590 -117.749857 92 24564ft 418kts
06-Jun-17 20:38 33.643826 -117.611053 92 26709ft 420kts
06-Jun-17 20:39 33.642886 -117.472379 92 28804ft 415kts
06-Jun-17 20:40 33.641824 -117.334781 92 30436ft 415kts
06-Jun-17 20:41 33.640690 -117.198115 92 32012ft 409kts
06-Jun-17 20:42 33.639427 -117.063431 92 32997ft 414kts
06-Jun-17 20:43 33.637890 -116.921222 92 32978ft 448kts
06-Jun-17 20:44 33.636040 -116.766290 92 32902ft 483kts
06-Jun-17 20:45 33.633954 -116.603818 92 32862ft 491kts
06-Jun-17 20:46 33.631702 -116.441062 92 32861ft 492kts
06-Jun-17 20:47 33.629275 -116.279773 92 32785ft 491kts
06-Jun-17 20:48 33.626605 -116.116393 92 32778ft 491kts
06-Jun-17 20:49 33.623735 -115.954328 92 32778ft 491kts
06-Jun-17 20:50 33.620613 -115.791028 92 32779ft 491kts
06-Jun-17 20:51 33.617308 -115.628681 92 32780ft 491kts
06-Jun-17 20:52 33.613799 -115.466559 92 32780ft 491kts
06-Jun-17 20:53 33.610072 -115.303946 93 32777ft 491kts
06-Jun-17 20:54 33.606134 -115.141337 93 32809ft 491kts
06-Jun-17 20:55 33.601955 -114.978230 93 32832ft 492kts
06-Jun-17 20:56 33.597566 -114.815224 93 32833ft 492kts
06-Jun-17 20:57 33.576520 -114.661019 104 31728ft 453kts
06-Jun-17 20:58 33.549008 -114.518759 105 29820ft 439kts
06-Jun-17 20:59 33.521558 -114.378695 105 28058ft 430kts
06-Jun-17 21:00 33.496046 -114.249240 106 26335ft 418kts
06-Jun-17 21:01 33.469745 -114.116626 106 24834ft 401kts
06-Jun-17 21:02 33.443430 -113.985528 106 24835ft 409kts
06-Jun-17 21:03 33.418320 -113.853065 106 24393ft 409kts
06-Jun-17 21:04 33.391768 -113.723513 106 23236ft 400kts
06-Jun-17 21:05 33.365503 -113.596786 106 21836ft 390kts
06-Jun-17 21:06 33.339684 -113.472599 106 20441ft 383kts
06-Jun-17 21:07 33.318182 -113.350447 103 19055ft 373kts
06-Jun-17 21:08 33.298138 -113.234457 103 17774ft 361kts
06-Jun-17 21:09 33.281674 -113.120529 102 16572ft 333kts
06-Jun-17 21:10 33.276190 -113.011951 90 15607ft 331kts
06-Jun-17 21:11 33.278582 -112.902609 90 14923ft 327kts
06-Jun-17 21:12 33.283200 -112.795158 85 14218ft 324kts
06-Jun-17 21:13 33.293009 -112.689206 85 13523ft 320kts
06-Jun-17 21:14 33.302733 -112.584805 85 12813ft 315kts
06-Jun-17 21:15 33.312301 -112.481229 85 11914ft 311kts
06-Jun-17 21:16 33.321633 -112.379347 85 11013ft 306kts
06-Jun-17 21:17 33.330269 -112.285420 85 10339ft 267kts
06-Jun-17 21:18 33.337949 -112.200732 86 9573ft 253kts
06-Jun-17 21:19 33.345464 -112.116821 86 9089ft 254kts
06-Jun-17 21:20 33.346783 -112.033082 92 8115ft 251kts
06-Jun-17 21:21 33.345689 -111.948597 92 6693ft 258kts
06-Jun-17 21:22 33.346438 -111.862799 90 5266ft 261kts
06-Jun-17 21:23 33.353965 -111.782343 41 4333ft 238kts
06-Jun-17 21:24 33.405162 -111.799299 319 3437ft 196kts
06-Jun-17 21:25 33.431568 -111.847907 270 2777ft 174kts
06-Jun-17 21:26 33.430699 -111.904336 269 2239ft 170kts
06-Jun-17 21:27 33.430939 -111.962476 270 1607ft 180kts
06-Jun-17 21:28 33.431079 -112.012506 299 1142ft 5kts
06-Jun-17 21:29 33.431795 -112.012682 17 1142ft 7kts
06-Jun-17 21:30 33.433490 -112.009435 105 1142ft 8kts

Navigation Log

Ident Type
Flight plan parsing failed, navigation log unavailable